sensor_id;sensor_type;location;lat;lon;timestamp;temperature;humidity
18839;DHT22;9548;56.920;14.804;2023-04-30T00:00:10;3.20;99.90
18839;DHT22;9548;56.920;14.804;2023-04-30T00:02:38;3.20;99.90
18839;DHT22;9548;56.920;14.804;2023-04-30T00:05:06;3.00;99.90
18839;DHT22;9548;56.920;14.804;2023-04-30T00:07:33;3.00;99.90
18839;DHT22;9548;56.920;14.804;2023-04-30T00:10:00;3.00;99.90
18839;DHT22;9548;56.920;14.804;2023-04-30T00:12:26;3.00;99.90
18839;DHT22;9548;56.920;14.804;2023-04-30T00:14:53;3.00;99.90
18839;DHT22;9548;56.920;14.804;2023-04-30T00:17:21;3.00;99.90
18839;DHT22;9548;56.920;14.804;2023-04-30T00:19:49;3.00;99.90
18839;DHT22;9548;56.920;14.804;2023-04-30T00:22:16;3.00;99.90
18839;DHT22;9548;56.920;14.804;2023-04-30T00:24:43;2.90;99.90
18839;DHT22;9548;56.920;14.804;2023-04-30T00:27:10;2.90;99.90
18839;DHT22;9548;56.920;14.804;2023-04-30T00:29:37;2.90;99.90
18839;DHT22;9548;56.920;14.804;2023-04-30T00:32:04;2.80;99.90
18839;DHT22;9548;56.920;14.804;2023-04-30T00:34:31;2.80;99.90
18839;DHT22;9548;56.920;14.804;2023-04-30T00:37:00;2.80;99.90
18839;DHT22;9548;56.920;14.804;2023-04-30T00:39:27;2.80;99.90
18839;DHT22;9548;56.920;14.804;2023-04-30T00:41:54;2.80;99.90
18839;DHT22;9548;56.920;14.804;2023-04-30T00:44:20;2.70;99.90
18839;DHT22;9548;56.920;14.804;2023-04-30T00:46:47;2.70;99.90
18839;DHT22;9548;56.920;14.804;2023-04-30T00:49:15;2.70;99.90
18839;DHT22;9548;56.920;14.804;2023-04-30T00:51:41;2.70;99.90
18839;DHT22;9548;56.920;14.804;2023-04-30T00:54:10;2.60;99.90
18839;DHT22;9548;56.920;14.804;2023-04-30T00:56:38;2.60;99.90
18839;DHT22;9548;56.920;14.804;2023-04-30T00:59:05;2.50;99.90
18839;DHT22;9548;56.920;14.804;2023-04-30T01:01:32;2.50;99.90
18839;DHT22;9548;56.920;14.804;2023-04-30T01:03:59;2.40;99.90
18839;DHT22;9548;56.920;14.804;2023-04-30T01:06:27;2.40;99.90
18839;DHT22;9548;56.920;14.804;2023-04-30T01:08:54;2.40;99.90
18839;DHT22;9548;56.920;14.804;2023-04-30T01:11:30;2.40;99.90
18839;DHT22;9548;56.920;14.804;2023-04-30T01:14:05;2.40;99.90
18839;DHT22;9548;56.920;14.804;2023-04-30T01:16:38;2.40;99.90
18839;DHT22;9548;56.920;14.804;2023-04-30T01:19:09;2.30;99.90
18839;DHT22;9548;56.920;14.804;2023-04-30T01:21:42;2.40;99.90
18839;DHT22;9548;56.920;14.804;2023-04-30T01:24:23;2.40;99.90
18839;DHT22;9548;56.920;14.804;2023-04-30T01:27:14;2.40;99.90
18839;DHT22;9548;56.920;14.804;2023-04-30T01:29:48;2.40;99.90
18839;DHT22;9548;56.920;14.804;2023-04-30T01:32:15;2.30;99.90
18839;DHT22;9548;56.920;14.804;2023-04-30T01:34:42;2.30;99.90
18839;DHT22;9548;56.920;14.804;2023-04-30T01:37:15;2.30;99.90
18839;DHT22;9548;56.920;14.804;2023-04-30T01:39:58;2.30;99.90
18839;DHT22;9548;56.920;14.804;2023-04-30T01:42:37;2.30;99.90
18839;DHT22;9548;56.920;14.804;2023-04-30T01:45:17;2.30;99.90
18839;DHT22;9548;56.920;14.804;2023-04-30T01:47:51;2.30;99.90
18839;DHT22;9548;56.920;14.804;2023-04-30T01:50:24;2.30;99.90
18839;DHT22;9548;56.920;14.804;2023-04-30T01:52:56;2.30;99.90
18839;DHT22;9548;56.920;14.804;2023-04-30T01:55:28;2.30;99.90
18839;DHT22;9548;56.920;14.804;2023-04-30T01:57:57;2.30;99.90
18839;DHT22;9548;56.920;14.804;2023-04-30T02:00:27;2.30;99.90
18839;DHT22;9548;56.920;14.804;2023-04-30T02:02:55;2.30;99.90
18839;DHT22;9548;56.920;14.804;2023-04-30T02:05:22;2.30;99.90
18839;DHT22;9548;56.920;14.804;2023-04-30T02:07:50;2.30;99.90
18839;DHT22;9548;56.920;14.804;2023-04-30T02:10:19;2.30;99.90
18839;DHT22;9548;56.920;14.804;2023-04-30T02:12:46;2.20;99.90
18839;DHT22;9548;56.920;14.804;2023-04-30T02:15:13;2.10;99.90
18839;DHT22;9548;56.920;14.804;2023-04-30T02:17:42;2.00;99.90
18839;DHT22;9548;56.920;14.804;2023-04-30T02:20:09;2.10;99.90
18839;DHT22;9548;56.920;14.804;2023-04-30T02:22:37;2.10;99.90
18839;DHT22;9548;56.920;14.804;2023-04-30T02:25:04;2.10;99.90
18839;DHT22;9548;56.920;14.804;2023-04-30T02:27:32;2.10;99.90
18839;DHT22;9548;56.920;14.804;2023-04-30T02:29:59;2.10;99.90
18839;DHT22;9548;56.920;14.804;2023-04-30T02:32:27;2.10;99.90
18839;DHT22;9548;56.920;14.804;2023-04-30T02:34:55;2.10;99.90
18839;DHT22;9548;56.920;14.804;2023-04-30T02:37:22;2.00;99.90
18839;DHT22;9548;56.920;14.804;2023-04-30T02:39:49;2.00;99.90
18839;DHT22;9548;56.920;14.804;2023-04-30T02:42:16;1.90;99.90
18839;DHT22;9548;56.920;14.804;2023-04-30T02:44:43;1.90;99.90
18839;DHT22;9548;56.920;14.804;2023-04-30T02:47:10;1.90;99.90
18839;DHT22;9548;56.920;14.804;2023-04-30T02:49:37;1.90;99.90
18839;DHT22;9548;56.920;14.804;2023-04-30T02:52:06;1.80;99.90
18839;DHT22;9548;56.920;14.804;2023-04-30T02:54:34;1.80;99.90
18839;DHT22;9548;56.920;14.804;2023-04-30T02:57:01;1.70;99.90
18839;DHT22;9548;56.920;14.804;2023-04-30T02:59:27;1.60;99.90
18839;DHT22;9548;56.920;14.804;2023-04-30T03:01:54;1.60;99.90
18839;DHT22;9548;56.920;14.804;2023-04-30T03:04:21;1.60;99.90
18839;DHT22;9548;56.920;14.804;2023-04-30T03:06:48;1.60;99.90
18839;DHT22;9548;56.920;14.804;2023-04-30T03:09:16;1.60;99.90
18839;DHT22;9548;56.920;14.804;2023-04-30T03:11:43;1.60;99.90
18839;DHT22;9548;56.920;14.804;2023-04-30T03:14:10;1.60;99.90
18839;DHT22;9548;56.920;14.804;2023-04-30T03:16:37;1.50;99.90
18839;DHT22;9548;56.920;14.804;2023-04-30T03:19:04;1.60;99.90
18839;DHT22;9548;56.920;14.804;2023-04-30T03:21:31;1.60;99.90
18839;DHT22;9548;56.920;14.804;2023-04-30T03:23:58;1.60;99.90
18839;DHT22;9548;56.920;14.804;2023-04-30T03:26:26;1.60;99.90
18839;DHT22;9548;56.920;14.804;2023-04-30T03:28:53;1.70;99.90
18839;DHT22;9548;56.920;14.804;2023-04-30T03:31:20;1.60;99.90
18839;DHT22;9548;56.920;14.804;2023-04-30T03:33:47;1.60;99.90
18839;DHT22;9548;56.920;14.804;2023-04-30T03:36:14;1.60;99.90
18839;DHT22;9548;56.920;14.804;2023-04-30T03:38:41;1.60;99.90
18839;DHT22;9548;56.920;14.804;2023-04-30T03:41:08;1.60;99.90
18839;DHT22;9548;56.920;14.804;2023-04-30T03:43:37;1.60;99.90
18839;DHT22;9548;56.920;14.804;2023-04-30T03:46:04;1.60;99.90
18839;DHT22;9548;56.920;14.804;2023-04-30T03:48:31;1.60;99.90
18839;DHT22;9548;56.920;14.804;2023-04-30T03:50:58;1.50;99.90
18839;DHT22;9548;56.920;14.804;2023-04-30T03:53:25;1.50;99.90
18839;DHT22;9548;56.920;14.804;2023-04-30T03:55:52;1.60;99.90
18839;DHT22;9548;56.920;14.804;2023-04-30T03:58:20;1.60;99.90
18839;DHT22;9548;56.920;14.804;2023-04-30T04:00:48;1.70;99.90
18839;DHT22;9548;56.920;14.804;2023-04-30T04:03:15;1.70;99.90
18839;DHT22;9548;56.920;14.804;2023-04-30T04:05:42;1.70;99.90
18839;DHT22;9548;56.920;14.804;2023-04-30T04:08:09;1.70;99.90
18839;DHT22;9548;56.920;14.804;2023-04-30T04:10:37;1.70;99.90
18839;DHT22;9548;56.920;14.804;2023-04-30T04:13:05;1.80;99.90
18839;DHT22;9548;56.920;14.804;2023-04-30T04:15:32;1.90;99.90
18839;DHT22;9548;56.920;14.804;2023-04-30T04:18:00;1.90;99.90
18839;DHT22;9548;56.920;14.804;2023-04-30T04:20:27;1.90;99.90
18839;DHT22;9548;56.920;14.804;2023-04-30T04:22:54;2.00;99.90
18839;DHT22;9548;56.920;14.804;2023-04-30T04:25:21;2.10;99.90
18839;DHT22;9548;56.920;14.804;2023-04-30T04:27:49;2.20;99.90
18839;DHT22;9548;56.920;14.804;2023-04-30T04:30:16;2.20;99.90
18839;DHT22;9548;56.920;14.804;2023-04-30T04:32:43;2.20;99.90
18839;DHT22;9548;56.920;14.804;2023-04-30T04:35:15;2.30;99.90
18839;DHT22;9548;56.920;14.804;2023-04-30T04:37:43;2.40;99.90
18839;DHT22;9548;56.920;14.804;2023-04-30T04:40:10;2.50;99.90
18839;DHT22;9548;56.920;14.804;2023-04-30T04:42:38;2.50;99.90
18839;DHT22;9548;56.920;14.804;2023-04-30T04:45:06;2.60;99.90
18839;DHT22;9548;56.920;14.804;2023-04-30T04:47:34;2.70;99.90
18839;DHT22;9548;56.920;14.804;2023-04-30T04:50:01;2.80;99.90
18839;DHT22;9548;56.920;14.804;2023-04-30T04:52:29;2.80;99.90
18839;DHT22;9548;56.920;14.804;2023-04-30T04:54:56;2.90;99.90
18839;DHT22;9548;56.920;14.804;2023-04-30T04:57:23;3.00;99.90
18839;DHT22;9548;56.920;14.804;2023-04-30T04:59:50;3.00;99.90
18839;DHT22;9548;56.920;14.804;2023-04-30T05:02:17;3.10;99.90
18839;DHT22;9548;56.920;14.804;2023-04-30T05:04:44;3.10;99.90
18839;DHT22;9548;56.920;14.804;2023-04-30T05:07:15;3.20;99.90
18839;DHT22;9548;56.920;14.804;2023-04-30T05:09:43;3.30;99.90
18839;DHT22;9548;56.920;14.804;2023-04-30T05:12:10;3.40;99.90
18839;DHT22;9548;56.920;14.804;2023-04-30T05:14:37;3.40;99.90
18839;DHT22;9548;56.920;14.804;2023-04-30T05:17:04;3.60;99.90
18839;DHT22;9548;56.920;14.804;2023-04-30T05:19:31;3.70;99.90
18839;DHT22;9548;56.920;14.804;2023-04-30T05:21:58;3.70;99.90
18839;DHT22;9548;56.920;14.804;2023-04-30T05:24:26;3.80;99.90
18839;DHT22;9548;56.920;14.804;2023-04-30T05:26:54;3.90;99.90
18839;DHT22;9548;56.920;14.804;2023-04-30T05:29:21;3.90;99.90
18839;DHT22;9548;56.920;14.804;2023-04-30T05:31:48;4.00;99.90
18839;DHT22;9548;56.920;14.804;2023-04-30T05:34:14;4.10;99.90
18839;DHT22;9548;56.920;14.804;2023-04-30T05:36:41;4.10;99.90
18839;DHT22;9548;56.920;14.804;2023-04-30T05:39:09;4.10;99.90
18839;DHT22;9548;56.920;14.804;2023-04-30T05:41:36;4.20;99.90
18839;DHT22;9548;56.920;14.804;2023-04-30T05:44:04;4.20;99.90
18839;DHT22;9548;56.920;14.804;2023-04-30T05:46:31;4.30;99.90
18839;DHT22;9548;56.920;14.804;2023-04-30T05:48:59;4.40;99.90
18839;DHT22;9548;56.920;14.804;2023-04-30T05:51:26;4.40;99.90
18839;DHT22;9548;56.920;14.804;2023-04-30T05:53:53;4.50;99.90
18839;DHT22;9548;56.920;14.804;2023-04-30T05:56:22;4.50;99.90
18839;DHT22;9548;56.920;14.804;2023-04-30T05:58:49;4.60;99.90
18839;DHT22;9548;56.920;14.804;2023-04-30T06:01:18;4.70;99.90
18839;DHT22;9548;56.920;14.804;2023-04-30T06:03:45;4.70;99.90
18839;DHT22;9548;56.920;14.804;2023-04-30T06:06:12;4.80;99.90
18839;DHT22;9548;56.920;14.804;2023-04-30T06:08:39;4.80;99.90
18839;DHT22;9548;56.920;14.804;2023-04-30T06:11:09;4.90;99.90
18839;DHT22;9548;56.920;14.804;2023-04-30T06:13:36;5.00;99.90
18839;DHT22;9548;56.920;14.804;2023-04-30T06:16:04;5.00;99.90
18839;DHT22;9548;56.920;14.804;2023-04-30T06:18:33;5.10;99.90
18839;DHT22;9548;56.920;14.804;2023-04-30T06:21:00;5.20;99.90
18839;DHT22;9548;56.920;14.804;2023-04-30T06:23:26;5.30;99.90
18839;DHT22;9548;56.920;14.804;2023-04-30T06:25:53;5.40;99.90
18839;DHT22;9548;56.920;14.804;2023-04-30T06:28:20;5.50;99.90
18839;DHT22;9548;56.920;14.804;2023-04-30T06:30:48;5.60;99.90
18839;DHT22;9548;56.920;14.804;2023-04-30T06:33:15;5.70;99.90
18839;DHT22;9548;56.920;14.804;2023-04-30T06:35:43;5.90;99.90
18839;DHT22;9548;56.920;14.804;2023-04-30T06:38:10;5.90;99.90
18839;DHT22;9548;56.920;14.804;2023-04-30T06:40:37;6.00;99.90
18839;DHT22;9548;56.920;14.804;2023-04-30T06:43:04;6.10;99.90
18839;DHT22;9548;56.920;14.804;2023-04-30T06:45:31;6.00;99.90
18839;DHT22;9548;56.920;14.804;2023-04-30T06:47:58;6.10;99.90
18839;DHT22;9548;56.920;14.804;2023-04-30T06:50:25;6.20;99.90
18839;DHT22;9548;56.920;14.804;2023-04-30T06:52:53;6.20;99.90
18839;DHT22;9548;56.920;14.804;2023-04-30T06:55:20;6.30;99.90
18839;DHT22;9548;56.920;14.804;2023-04-30T06:57:47;6.30;99.90
18839;DHT22;9548;56.920;14.804;2023-04-30T07:00:14;6.40;99.90
18839;DHT22;9548;56.920;14.804;2023-04-30T07:02:41;6.40;99.90
18839;DHT22;9548;56.920;14.804;2023-04-30T07:05:08;6.50;99.90
18839;DHT22;9548;56.920;14.804;2023-04-30T07:07:35;6.60;99.90
18839;DHT22;9548;56.920;14.804;2023-04-30T07:10:05;6.70;99.90
18839;DHT22;9548;56.920;14.804;2023-04-30T07:12:32;6.80;99.90
18839;DHT22;9548;56.920;14.804;2023-04-30T07:14:58;6.80;99.90
18839;DHT22;9548;56.920;14.804;2023-04-30T07:17:26;6.80;99.90
18839;DHT22;9548;56.920;14.804;2023-04-30T07:19:53;6.80;99.90
18839;DHT22;9548;56.920;14.804;2023-04-30T07:22:20;6.90;99.90
18839;DHT22;9548;56.920;14.804;2023-04-30T07:24:47;6.80;99.90
18839;DHT22;9548;56.920;14.804;2023-04-30T07:27:15;6.80;99.90
18839;DHT22;9548;56.920;14.804;2023-04-30T07:29:42;6.80;99.90
18839;DHT22;9548;56.920;14.804;2023-04-30T07:32:09;6.90;99.90
18839;DHT22;9548;56.920;14.804;2023-04-30T07:34:35;7.10;99.90
18839;DHT22;9548;56.920;14.804;2023-04-30T07:37:02;7.20;99.90
18839;DHT22;9548;56.920;14.804;2023-04-30T07:39:29;7.30;99.90
18839;DHT22;9548;56.920;14.804;2023-04-30T07:41:56;7.40;99.90
18839;DHT22;9548;56.920;14.804;2023-04-30T07:44:25;7.40;99.90
18839;DHT22;9548;56.920;14.804;2023-04-30T07:46:51;7.50;99.90
18839;DHT22;9548;56.920;14.804;2023-04-30T07:49:18;7.50;99.90
18839;DHT22;9548;56.920;14.804;2023-04-30T07:51:45;7.40;99.90
18839;DHT22;9548;56.920;14.804;2023-04-30T07:54:13;7.60;99.90
18839;DHT22;9548;56.920;14.804;2023-04-30T07:56:40;7.70;99.90
18839;DHT22;9548;56.920;14.804;2023-04-30T07:59:07;7.80;99.90
18839;DHT22;9548;56.920;14.804;2023-04-30T08:01:35;7.90;99.90
18839;DHT22;9548;56.920;14.804;2023-04-30T08:04:03;7.90;99.90
18839;DHT22;9548;56.920;14.804;2023-04-30T08:06:29;7.90;99.90
18839;DHT22;9548;56.920;14.804;2023-04-30T08:08:56;8.00;99.90
18839;DHT22;9548;56.920;14.804;2023-04-30T08:11:23;8.10;99.90
18839;DHT22;9548;56.920;14.804;2023-04-30T08:13:50;8.20;99.90
18839;DHT22;9548;56.920;14.804;2023-04-30T08:16:17;8.10;99.90
18839;DHT22;9548;56.920;14.804;2023-04-30T08:18:45;8.00;99.20
18839;DHT22;9548;56.920;14.804;2023-04-30T08:21:14;8.00;99.80
18839;DHT22;9548;56.920;14.804;2023-04-30T08:23:42;8.20;99.90
18839;DHT22;9548;56.920;14.804;2023-04-30T08:26:09;8.40;99.20
18839;DHT22;9548;56.920;14.804;2023-04-30T08:28:36;8.40;99.90
18839;DHT22;9548;56.920;14.804;2023-04-30T08:31:03;8.40;99.90
18839;DHT22;9548;56.920;14.804;2023-04-30T08:33:30;8.60;99.90
18839;DHT22;9548;56.920;14.804;2023-04-30T08:35:58;8.70;99.00
18839;DHT22;9548;56.920;14.804;2023-04-30T08:38:26;8.60;98.10
18839;DHT22;9548;56.920;14.804;2023-04-30T08:41:04;8.60;98.20
18839;DHT22;9548;56.920;14.804;2023-04-30T08:43:34;8.60;97.70
18839;DHT22;9548;56.920;14.804;2023-04-30T08:46:02;8.70;97.20
18839;DHT22;9548;56.920;14.804;2023-04-30T08:48:30;8.70;97.10
18839;DHT22;9548;56.920;14.804;2023-04-30T08:51:00;8.70;97.70
18839;DHT22;9548;56.920;14.804;2023-04-30T08:53:28;9.00;97.10
18839;DHT22;9548;56.920;14.804;2023-04-30T08:55:55;9.20;96.60
18839;DHT22;9548;56.920;14.804;2023-04-30T08:58:22;9.30;96.40
18839;DHT22;9548;56.920;14.804;2023-04-30T09:00:49;9.30;96.30
18839;DHT22;9548;56.920;14.804;2023-04-30T09:03:16;9.60;97.00
18839;DHT22;9548;56.920;14.804;2023-04-30T09:05:43;9.60;94.00
18839;DHT22;9548;56.920;14.804;2023-04-30T09:08:16;9.60;94.10
18839;DHT22;9548;56.920;14.804;2023-04-30T09:10:46;9.50;94.40
18839;DHT22;9548;56.920;14.804;2023-04-30T09:13:13;9.70;93.50
18839;DHT22;9548;56.920;14.804;2023-04-30T09:15:40;9.90;93.60
18839;DHT22;9548;56.920;14.804;2023-04-30T09:18:11;10.00;93.80
18839;DHT22;9548;56.920;14.804;2023-04-30T09:20:53;10.10;93.30
18839;DHT22;9548;56.920;14.804;2023-04-30T09:23:22;10.00;92.80
18839;DHT22;9548;56.920;14.804;2023-04-30T09:25:50;9.90;92.90
18839;DHT22;9548;56.920;14.804;2023-04-30T09:28:18;10.30;93.10
18839;DHT22;9548;56.920;14.804;2023-04-30T09:30:48;10.70;93.10
18839;DHT22;9548;56.920;14.804;2023-04-30T09:33:16;10.80;92.80
18839;DHT22;9548;56.920;14.804;2023-04-30T09:35:43;10.70;92.90
18839;DHT22;9548;56.920;14.804;2023-04-30T09:38:26;10.50;91.50
18839;DHT22;9548;56.920;14.804;2023-04-30T09:40:53;10.70;91.40
18839;DHT22;9548;56.920;14.804;2023-04-30T09:43:20;11.00;90.70
18839;DHT22;9548;56.920;14.804;2023-04-30T09:45:48;11.00;91.00
18839;DHT22;9548;56.920;14.804;2023-04-30T09:48:16;10.60;91.20
18839;DHT22;9548;56.920;14.804;2023-04-30T09:50:43;10.60;91.90
18839;DHT22;9548;56.920;14.804;2023-04-30T09:53:12;11.20;91.60
18839;DHT22;9548;56.920;14.804;2023-04-30T09:55:43;12.00;88.80
18839;DHT22;9548;56.920;14.804;2023-04-30T09:58:12;12.80;84.30
18839;DHT22;9548;56.920;14.804;2023-04-30T10:00:39;12.80;82.20
18839;DHT22;9548;56.920;14.804;2023-04-30T10:03:08;12.30;83.70
18839;DHT22;9548;56.920;14.804;2023-04-30T10:05:37;12.60;85.10
18839;DHT22;9548;56.920;14.804;2023-04-30T10:08:06;13.50;83.20
18839;DHT22;9548;56.920;14.804;2023-04-30T10:10:37;13.30;80.30
18839;DHT22;9548;56.920;14.804;2023-04-30T10:13:06;13.20;80.60
18839;DHT22;9548;56.920;14.804;2023-04-30T10:15:39;14.30;79.00
18839;DHT22;9548;56.920;14.804;2023-04-30T10:18:18;14.10;78.90
18839;DHT22;9548;56.920;14.804;2023-04-30T10:20:48;14.30;80.40
18839;DHT22;9548;56.920;14.804;2023-04-30T10:23:16;14.80;77.60
18839;DHT22;9548;56.920;14.804;2023-04-30T10:25:43;15.60;74.70
18839;DHT22;9548;56.920;14.804;2023-04-30T10:28:12;16.40;74.00
18839;DHT22;9548;56.920;14.804;2023-04-30T10:30:40;16.60;70.20
18839;DHT22;9548;56.920;14.804;2023-04-30T10:33:21;17.30;68.60
18839;DHT22;9548;56.920;14.804;2023-04-30T10:35:55;18.00;63.70
18839;DHT22;9548;56.920;14.804;2023-04-30T10:38:26;16.70;66.80
18839;DHT22;9548;56.920;14.804;2023-04-30T10:40:54;16.70;65.20
18839;DHT22;9548;56.920;14.804;2023-04-30T10:43:25;16.70;65.30
18839;DHT22;9548;56.920;14.804;2023-04-30T10:45:53;17.00;63.60
18839;DHT22;9548;56.920;14.804;2023-04-30T10:48:22;17.50;60.80
18839;DHT22;9548;56.920;14.804;2023-04-30T10:50:51;17.10;61.80
18839;DHT22;9548;56.920;14.804;2023-04-30T10:53:19;16.30;60.90
18839;DHT22;9548;56.920;14.804;2023-04-30T10:55:51;17.10;63.40
18839;DHT22;9548;56.920;14.804;2023-04-30T10:58:29;17.20;61.20
18839;DHT22;9548;56.920;14.804;2023-04-30T11:01:00;16.50;62.00
18839;DHT22;9548;56.920;14.804;2023-04-30T11:03:29;17.00;62.60
18839;DHT22;9548;56.920;14.804;2023-04-30T11:05:57;18.70;59.80
18839;DHT22;9548;56.920;14.804;2023-04-30T11:08:35;19.20;58.30
18839;DHT22;9548;56.920;14.804;2023-04-30T11:11:02;20.00;55.70
18839;DHT22;9548;56.920;14.804;2023-04-30T11:13:39;20.20;55.30
18839;DHT22;9548;56.920;14.804;2023-04-30T11:16:07;20.20;54.90
18839;DHT22;9548;56.920;14.804;2023-04-30T11:18:40;20.00;54.30
18839;DHT22;9548;56.920;14.804;2023-04-30T11:21:08;19.60;55.20
18839;DHT22;9548;56.920;14.804;2023-04-30T11:23:35;18.10;55.10
18839;DHT22;9548;56.920;14.804;2023-04-30T11:26:03;17.20;57.30
18839;DHT22;9548;56.920;14.804;2023-04-30T11:28:31;16.30;57.90
18839;DHT22;9548;56.920;14.804;2023-04-30T11:31:01;16.70;57.80
18839;DHT22;9548;56.920;14.804;2023-04-30T11:33:29;17.60;57.20
18839;DHT22;9548;56.920;14.804;2023-04-30T11:35:58;19.30;54.70
18839;DHT22;9548;56.920;14.804;2023-04-30T11:38:27;20.00;52.70
18839;DHT22;9548;56.920;14.804;2023-04-30T11:40:55;20.60;54.60
18839;DHT22;9548;56.920;14.804;2023-04-30T11:43:23;20.20;51.00
18839;DHT22;9548;56.920;14.804;2023-04-30T11:46:03;18.40;53.70
18839;DHT22;9548;56.920;14.804;2023-04-30T11:48:32;18.80;54.40
18839;DHT22;9548;56.920;14.804;2023-04-30T11:51:02;21.10;54.30
18839;DHT22;9548;56.920;14.804;2023-04-30T11:53:29;21.10;50.60
18839;DHT22;9548;56.920;14.804;2023-04-30T11:56:01;19.30;52.40
18839;DHT22;9548;56.920;14.804;2023-04-30T11:58:32;18.30;53.70
18839;DHT22;9548;56.920;14.804;2023-04-30T12:01:00;17.30;54.90
18839;DHT22;9548;56.920;14.804;2023-04-30T12:03:28;16.30;56.60
18839;DHT22;9548;56.920;14.804;2023-04-30T12:05:55;16.20;57.10
18839;DHT22;9548;56.920;14.804;2023-04-30T12:08:22;16.50;56.50
18839;DHT22;9548;56.920;14.804;2023-04-30T12:10:49;17.60;55.60
18839;DHT22;9548;56.920;14.804;2023-04-30T12:13:16;17.60;54.40
18839;DHT22;9548;56.920;14.804;2023-04-30T12:15:56;16.70;55.30
18839;DHT22;9548;56.920;14.804;2023-04-30T12:18:23;17.20;55.50
18839;DHT22;9548;56.920;14.804;2023-04-30T12:20:52;17.80;54.00
18839;DHT22;9548;56.920;14.804;2023-04-30T12:23:19;18.10;54.30
18839;DHT22;9548;56.920;14.804;2023-04-30T12:25:47;17.20;54.60
18839;DHT22;9548;56.920;14.804;2023-04-30T12:28:14;16.80;55.30
18839;DHT22;9548;56.920;14.804;2023-04-30T12:30:42;17.20;54.20
18839;DHT22;9548;56.920;14.804;2023-04-30T12:33:09;16.70;55.20
18839;DHT22;9548;56.920;14.804;2023-04-30T12:35:41;16.80;56.30
18839;DHT22;9548;56.920;14.804;2023-04-30T12:38:14;17.00;55.40
18839;DHT22;9548;56.920;14.804;2023-04-30T12:40:45;17.70;55.00
18839;DHT22;9548;56.920;14.804;2023-04-30T12:43:15;17.00;55.00
18839;DHT22;9548;56.920;14.804;2023-04-30T12:45:43;16.00;55.90
18839;DHT22;9548;56.920;14.804;2023-04-30T12:48:11;16.90;55.40
18839;DHT22;9548;56.920;14.804;2023-04-30T12:50:38;17.60;54.80
18839;DHT22;9548;56.920;14.804;2023-04-30T12:53:05;18.50;53.10
18839;DHT22;9548;56.920;14.804;2023-04-30T12:55:34;19.80;52.20
18839;DHT22;9548;56.920;14.804;2023-04-30T12:58:03;20.00;51.30
18839;DHT22;9548;56.920;14.804;2023-04-30T13:00:42;20.20;51.50
18839;DHT22;9548;56.920;14.804;2023-04-30T13:03:09;19.70;51.60
18839;DHT22;9548;56.920;14.804;2023-04-30T13:05:36;19.60;51.30
18839;DHT22;9548;56.920;14.804;2023-04-30T13:08:04;19.90;51.20
18839;DHT22;9548;56.920;14.804;2023-04-30T13:10:31;21.20;49.30
18839;DHT22;9548;56.920;14.804;2023-04-30T13:12:59;23.00;47.70
18839;DHT22;9548;56.920;14.804;2023-04-30T13:15:26;22.00;47.70
18839;DHT22;9548;56.920;14.804;2023-04-30T13:17:53;20.70;49.10
18839;DHT22;9548;56.920;14.804;2023-04-30T13:20:20;19.10;51.20
18839;DHT22;9548;56.920;14.804;2023-04-30T13:22:47;19.90;51.00
18839;DHT22;9548;56.920;14.804;2023-04-30T13:25:14;21.40;50.10
18839;DHT22;9548;56.920;14.804;2023-04-30T13:27:41;21.30;48.80
18839;DHT22;9548;56.920;14.804;2023-04-30T13:30:11;20.30;49.70
18839;DHT22;9548;56.920;14.804;2023-04-30T13:32:38;22.00;48.60
18839;DHT22;9548;56.920;14.804;2023-04-30T13:35:06;23.40;47.50
18839;DHT22;9548;56.920;14.804;2023-04-30T13:37:33;22.50;47.30
18839;DHT22;9548;56.920;14.804;2023-04-30T13:40:00;21.30;46.90
18839;DHT22;9548;56.920;14.804;2023-04-30T13:42:28;20.70;48.40
18839;DHT22;9548;56.920;14.804;2023-04-30T13:44:55;21.60;47.80
18839;DHT22;9548;56.920;14.804;2023-04-30T13:47:24;20.80;47.60
18839;DHT22;9548;56.920;14.804;2023-04-30T13:49:50;20.00;49.30
18839;DHT22;9548;56.920;14.804;2023-04-30T13:52:17;20.80;48.70
18839;DHT22;9548;56.920;14.804;2023-04-30T13:54:44;21.70;47.40
18839;DHT22;9548;56.920;14.804;2023-04-30T13:57:11;22.20;47.80
18839;DHT22;9548;56.920;14.804;2023-04-30T13:59:38;22.00;47.30
18839;DHT22;9548;56.920;14.804;2023-04-30T14:02:05;22.90;46.50
18839;DHT22;9548;56.920;14.804;2023-04-30T14:04:34;23.00;45.70
18839;DHT22;9548;56.920;14.804;2023-04-30T14:07:01;24.20;45.80
18839;DHT22;9548;56.920;14.804;2023-04-30T14:09:28;25.60;44.50
18839;DHT22;9548;56.920;14.804;2023-04-30T14:11:55;25.80;42.70
18839;DHT22;9548;56.920;14.804;2023-04-30T14:14:23;24.50;43.80
18839;DHT22;9548;56.920;14.804;2023-04-30T14:16:51;24.30;43.90
18839;DHT22;9548;56.920;14.804;2023-04-30T14:19:18;24.30;42.80
18839;DHT22;9548;56.920;14.804;2023-04-30T14:21:46;24.20;43.10
18839;DHT22;9548;56.920;14.804;2023-04-30T14:24:13;23.50;44.60
18839;DHT22;9548;56.920;14.804;2023-04-30T14:26:41;23.50;44.10
18839;DHT22;9548;56.920;14.804;2023-04-30T14:29:08;23.90;43.60
18839;DHT22;9548;56.920;14.804;2023-04-30T14:31:35;23.40;43.40
18839;DHT22;9548;56.920;14.804;2023-04-30T14:34:02;23.20;43.90
18839;DHT22;9548;56.920;14.804;2023-04-30T14:36:29;23.50;42.80
18839;DHT22;9548;56.920;14.804;2023-04-30T14:38:57;23.50;43.40
18839;DHT22;9548;56.920;14.804;2023-04-30T14:41:24;23.00;44.40
18839;DHT22;9548;56.920;14.804;2023-04-30T14:43:51;22.60;44.60
18839;DHT22;9548;56.920;14.804;2023-04-30T14:46:18;22.50;44.60
18839;DHT22;9548;56.920;14.804;2023-04-30T14:48:45;21.30;46.20
18839;DHT22;9548;56.920;14.804;2023-04-30T14:51:12;20.80;46.50
18839;DHT22;9548;56.920;14.804;2023-04-30T14:53:39;21.20;46.30
18839;DHT22;9548;56.920;14.804;2023-04-30T14:56:07;21.30;45.40
18839;DHT22;9548;56.920;14.804;2023-04-30T14:58:34;21.50;46.00
18839;DHT22;9548;56.920;14.804;2023-04-30T15:01:02;21.50;45.90
18839;DHT22;9548;56.920;14.804;2023-04-30T15:03:28;21.20;47.20
18839;DHT22;9548;56.920;14.804;2023-04-30T15:05:55;20.90;47.50
18839;DHT22;9548;56.920;14.804;2023-04-30T15:08:23;21.80;46.80
18839;DHT22;9548;56.920;14.804;2023-04-30T15:10:49;21.60;46.00
18839;DHT22;9548;56.920;14.804;2023-04-30T15:13:18;21.90;45.90
18839;DHT22;9548;56.920;14.804;2023-04-30T15:15:45;22.50;44.90
18839;DHT22;9548;56.920;14.804;2023-04-30T15:18:14;21.90;46.30
18839;DHT22;9548;56.920;14.804;2023-04-30T15:20:41;21.40;46.40
18839;DHT22;9548;56.920;14.804;2023-04-30T15:23:08;21.30;46.70
18839;DHT22;9548;56.920;14.804;2023-04-30T15:25:35;22.40;45.40
18839;DHT22;9548;56.920;14.804;2023-04-30T15:28:02;22.10;45.20
18839;DHT22;9548;56.920;14.804;2023-04-30T15:30:30;22.20;45.40
18839;DHT22;9548;56.920;14.804;2023-04-30T15:32:57;21.30;46.50
18839;DHT22;9548;56.920;14.804;2023-04-30T15:35:25;22.70;45.50
18839;DHT22;9548;56.920;14.804;2023-04-30T15:37:52;22.90;44.20
18839;DHT22;9548;56.920;14.804;2023-04-30T15:40:19;23.30;43.30
18839;DHT22;9548;56.920;14.804;2023-04-30T15:42:46;23.10;43.90
18839;DHT22;9548;56.920;14.804;2023-04-30T15:45:13;24.50;43.00